createdAt,value
2017-12-29T00:02:19.459Z,98948.70
2017-12-29T00:18:04.005Z,98964.05
2017-12-29T01:16:40.289Z,99019.61
2017-12-29T01:41:23.244Z,99041.48
2017-12-29T02:18:20.950Z,99078.64
2017-12-29T02:21:16.729Z,99079.99
2017-12-29T02:27:23.043Z,99080.52
2017-12-29T02:30:14.822Z,99080.78
2017-12-29T02:33:07.979Z,99075.60
2017-12-29T02:35:47.558Z,99077.70
2017-12-29T02:44:30.934Z,99088.56
2017-12-29T02:47:18.087Z,99085.85
2017-12-29T02:50:07.433Z,99081.91
2017-12-29T02:52:58.715Z,99083.45
2017-12-29T02:56:00.045Z,99087.81
2017-12-29T02:58:41.024Z,99081.05
2017-12-29T03:12:17.559Z,99092.09
2017-12-29T03:14:55.496Z,99092.88
2017-12-29T03:17:43.220Z,99103.02
2017-12-29T03:20:18.175Z,99098.55
2017-12-29T03:22:56.608Z,99100.88
2017-12-29T03:25:36.391Z,99106.25
2017-12-29T03:28:11.118Z,99107.23
2017-12-29T03:30:49.484Z,99115.12
2017-12-29T03:33:23.046Z,99114.30
2017-12-29T03:35:56.188Z,99119.40
2017-12-29T03:38:30.612Z,99123.12
2017-12-29T03:41:04.470Z,99128.64
2017-12-29T03:43:43.174Z,99130.52
2017-12-29T03:46:20.304Z,99139.30
2017-12-29T03:48:54.790Z,99145.42
2017-12-29T03:51:37.808Z,99144.74
2017-12-29T03:54:14.981Z,99141.63
2017-12-29T03:56:52.931Z,99145.01
2017-12-29T03:59:30.365Z,99150.88
2017-12-29T04:02:09.149Z,99155.30
2017-12-29T04:04:46.531Z,99150.90
2017-12-29T04:07:24.091Z,99151.02
2017-12-29T04:09:58.964Z,99150.75
2017-12-29T04:12:37.652Z,99156.22
2017-12-29T04:15:16.047Z,99151.87
2017-12-29T04:17:52.867Z,99158.05
2017-12-29T04:20:29.282Z,99158.81
2017-12-29T04:23:03.078Z,99157.58
2017-12-29T04:25:39.774Z,99153.15
2017-12-29T04:28:17.491Z,99158.97
2017-12-29T04:30:49.546Z,99163.03
2017-12-29T04:33:25.429Z,99169.83
2017-12-29T04:36:02.656Z,99170.57
2017-12-29T04:38:39.066Z,99168.02
2017-12-29T04:41:17.215Z,99171.51
2017-12-29T04:43:55.837Z,99178.49
2017-12-29T04:46:32.358Z,99182.84
2017-12-29T04:49:08.780Z,99188.84
2017-12-29T04:51:43.629Z,99196.34
2017-12-29T04:54:20.176Z,99194.02
2017-12-29T04:56:59.602Z,99195.88
2017-12-29T04:59:36.387Z,99193.80
2017-12-29T05:02:21.684Z,99196.98
2017-12-29T05:05:02.474Z,99191.16
2017-12-29T05:07:38.632Z,99186.36
2017-12-29T05:10:18.140Z,99190.78
2017-12-29T05:12:55.020Z,99191.94
2017-12-29T05:15:31.054Z,99195.13
2017-12-29T05:18:08.593Z,99202.81
2017-12-29T05:20:44.312Z,99207.33
2017-12-29T05:23:29.244Z,99210.08
2017-12-29T05:26:06.079Z,99210.97
2017-12-29T05:28:42.687Z,99209.35
2017-12-29T05:31:20.227Z,99210.45
2017-12-29T05:33:56.010Z,99215.11
2017-12-29T05:36:32.283Z,99214.45
2017-12-29T05:39:10.108Z,99216.25
2017-12-29T05:41:46.344Z,99216.84
2017-12-29T05:44:25.535Z,99208.98
2017-12-29T05:47:13.610Z,99216.73
2017-12-29T05:49:50.491Z,99220.88
2017-12-29T05:52:28.147Z,99215.06
2017-12-29T05:55:04.737Z,99217.02
2017-12-29T05:57:41.539Z,99221.39
2017-12-29T06:00:19.249Z,99212.91
2017-12-29T06:02:55.215Z,99221.39
2017-12-29T06:05:33.036Z,99223.89
2017-12-29T06:08:11.872Z,99225.34
2017-12-29T06:10:48.419Z,99221.42
2017-12-29T06:13:25.952Z,99228.37
2017-12-29T06:16:02.586Z,99215.22
2017-12-29T06:18:39.137Z,99228.38
2017-12-29T06:21:15.104Z,99221.21
2017-12-29T06:23:50.934Z,99228.19
2017-12-29T06:26:28.108Z,99217.38
2017-12-29T06:29:04.030Z,99229.27
2017-12-29T06:31:39.791Z,99223.86
2017-12-29T06:34:17.160Z,99244.47
2017-12-29T06:36:50.424Z,99232.17
2017-12-29T06:39:23.596Z,99231.90
2017-12-29T06:41:56.273Z,99237.16
2017-12-29T06:44:28.083Z,99237.98
2017-12-29T06:47:01.544Z,99240.88
2017-12-29T06:49:33.663Z,99248.05
2017-12-29T06:52:05.982Z,99253.67
2017-12-29T06:54:39.902Z,99262.20
2017-12-29T06:57:13.171Z,99259.41
2017-12-29T06:59:46.859Z,99264.34
2017-12-29T07:02:20.134Z,99258.98
2017-12-29T07:04:53.342Z,99267.20
2017-12-29T07:07:28.480Z,99263.52
2017-12-29T07:10:01.804Z,99266.84
2017-12-29T07:12:35.168Z,99271.67
2017-12-29T07:15:09.617Z,99277.84
2017-12-29T07:17:43.049Z,99279.20
2017-12-29T07:20:16.367Z,99283.72
2017-12-29T07:22:51.796Z,99283.58
2017-12-29T07:25:24.649Z,99285.65
2017-12-29T07:27:58.075Z,99284.77
2017-12-29T07:30:32.748Z,99284.20
2017-12-29T07:33:05.566Z,99282.59
2017-12-29T07:35:39.044Z,99280.96
2017-12-29T07:38:12.964Z,99283.41
2017-12-29T07:40:46.037Z,99296.05
2017-12-29T07:43:19.148Z,99299.63
2017-12-29T07:45:51.802Z,99297.50
2017-12-29T07:48:24.862Z,99300.26
2017-12-29T07:50:58.410Z,99298.86
2017-12-29T07:53:31.842Z,99301.34
2017-12-29T07:56:04.722Z,99304.92
2017-12-29T07:58:38.356Z,99306.38
2017-12-29T08:01:12.773Z,99307.84
2017-12-29T08:03:47.598Z,99315.20
2017-12-29T08:06:23.425Z,99320.05
2017-12-29T08:08:56.823Z,99329.30
2017-12-29T08:11:30.669Z,99333.87
2017-12-29T08:16:40.628Z,99343.49
2017-12-29T08:19:14.087Z,99342.69
2017-12-29T08:21:47.951Z,99341.67
2017-12-29T08:24:20.825Z,99348.62
2017-12-29T08:26:53.866Z,99354.08
2017-12-29T08:29:28.180Z,99351.84
2017-12-29T08:32:01.832Z,99348.56
2017-12-29T08:34:36.058Z,99349.51
2017-12-29T08:37:09.677Z,99358.25
2017-12-29T08:39:42.406Z,99354.85
2017-12-29T08:42:15.148Z,99351.69
2017-12-29T08:44:48.263Z,99354.55
2017-12-29T08:47:21.318Z,99362.19
2017-12-29T08:49:54.367Z,99370.25
2017-12-29T08:52:27.759Z,99367.02
2017-12-29T08:54:59.795Z,99372.76
2017-12-29T08:57:46.270Z,99371.24
2017-12-29T09:00:26.636Z,99379.70
2017-12-29T09:05:27.610Z,99381.53
2017-12-29T09:07:59.907Z,99376.75
2017-12-29T09:10:33.498Z,99371.48
2017-12-29T09:13:06.180Z,99376.17
2017-12-29T09:15:39.685Z,99392.03
2017-12-29T09:18:18.849Z,99376.81
2017-12-29T09:20:51.627Z,99381.69
2017-12-29T09:23:24.400Z,99384.12
2017-12-29T09:25:56.631Z,99376.42
2017-12-29T09:28:30.384Z,99387.61
2017-12-29T09:31:03.092Z,99377.00
2017-12-29T09:33:35.837Z,99383.17
2017-12-29T09:36:09.528Z,99384.99
2017-12-29T09:38:42.530Z,99379.44
2017-12-29T09:41:15.850Z,99381.68
2017-12-29T09:43:48.369Z,99385.67
2017-12-29T09:46:21.273Z,99378.04
2017-12-29T09:49:08.760Z,99375.45
2017-12-29T09:51:43.063Z,99372.11
2017-12-29T09:54:47.463Z,99366.53
2017-12-29T10:09:42.379Z,99355.52
2017-12-29T10:15:52.417Z,99343.49
2017-12-29T10:21:25.996Z,99338.41
2017-12-29T10:24:28.038Z,99332.36
2017-12-29T10:27:11.359Z,99325.19
2017-12-29T10:39:05.967Z,99339.17
2017-12-29T10:41:51.546Z,99331.01
2017-12-29T10:44:39.783Z,99320.77
2017-12-29T10:47:14.007Z,99306.83
2017-12-29T10:52:32.638Z,99295.44
2017-12-29T10:55:09.812Z,99281.50
2017-12-29T10:57:46.082Z,99280.72
2017-12-29T11:00:30.013Z,99272.03
2017-12-29T11:03:08.167Z,99281.80
2017-12-29T11:09:02.934Z,99287.80
2017-12-29T11:11:47.706Z,99281.69
2017-12-29T11:14:22.679Z,99282.08
2017-12-29T11:17:04.473Z,99292.53
2017-12-29T11:19:37.634Z,99287.37
2017-12-29T11:22:15.706Z,99283.74
2017-12-29T11:25:00.737Z,99278.03
2017-12-29T11:27:41.931Z,99281.02
2017-12-29T11:35:25.747Z,99282.18
2017-12-29T11:44:29.999Z,99282.09
2017-12-29T11:47:07.979Z,99270.02
2017-12-29T11:49:49.469Z,99269.98
2017-12-29T11:52:28.283Z,99272.02
2017-12-29T11:55:19.612Z,99267.88
2017-12-29T11:58:03.993Z,99269.94
2017-12-29T12:00:50.802Z,99268.59
2017-12-29T12:03:39.898Z,99271.37
2017-12-29T12:06:41.207Z,99266.40
2017-12-29T12:09:19.923Z,99264.34
2017-12-29T12:18:02.585Z,99256.42
2017-12-29T12:20:52.134Z,99258.05
2017-12-29T12:23:42.623Z,99258.95
2017-12-29T12:27:03.447Z,99256.84
2017-12-29T12:39:12.886Z,99245.63
2017-12-29T12:45:38.531Z,99241.78
2017-12-29T12:48:23.639Z,99244.88
2017-12-29T12:54:48.941Z,99245.97
2017-12-29T12:57:48.446Z,99244.70
2017-12-29T13:00:42.790Z,99247.00
2017-12-29T13:03:24.664Z,99251.14
2017-12-29T13:27:17.095Z,99243.21
2017-12-29T13:35:50.914Z,99239.08
2017-12-29T13:51:03.981Z,99226.30
2017-12-29T14:12:56.925Z,99211.84
2017-12-29T14:33:46.609Z,99213.25
2017-12-29T14:45:56.869Z,99219.89
2017-12-29T14:49:47.438Z,99224.80
2017-12-29T14:56:10.661Z,99223.36
2017-12-29T15:05:53.700Z,99223.27
2017-12-29T15:18:13.467Z,99204.27
2017-12-29T15:21:03.509Z,99201.56
2017-12-29T15:24:00.329Z,99188.95
2017-12-29T15:30:10.496Z,99181.97
2017-12-29T15:53:20.524Z,99179.30
2017-12-29T17:30:40.822Z,99033.03
2017-12-29T17:33:51.206Z,99029.08
2017-12-29T17:37:55.574Z,99011.81
2017-12-29T17:40:53.124Z,99006.87
2017-12-29T17:44:27.491Z,99000.95
2017-12-29T18:08:44.868Z,98980.42
2017-12-29T21:41:22.458Z,117434.73
2017-12-29T21:51:19.266Z,117434.73
2017-12-29T22:00:22.475Z,117434.73
2017-12-29T22:06:44.642Z,117434.73
2017-12-29T22:09:54.300Z,117434.73
2017-12-29T22:12:38.674Z,117434.73
2017-12-29T22:15:27.481Z,117434.73
2017-12-29T22:18:37.416Z,117434.73
2017-12-29T22:24:35.397Z,117434.73
2017-12-29T22:27:26.078Z,117434.73
2017-12-29T22:36:49.766Z,117434.73
2017-12-29T22:40:05.861Z,117434.73
2017-12-29T22:45:39.804Z,117434.73
2017-12-29T22:48:33.590Z,117434.73
2017-12-29T22:51:15.760Z,117434.73
2017-12-29T22:54:03.895Z,117434.73
